createdAt,value
2023-04-15T00:00:22.053Z,43.751429
2023-04-15T00:05:24.555Z,43.100000
2023-04-15T00:10:27.011Z,42.776000
2023-04-15T00:15:28.911Z,43.340000
2023-04-15T00:20:31.295Z,42.944000
2023-04-15T00:25:33.716Z,42.368000
2023-04-15T00:30:15.946Z,42.536000
2023-04-15T00:35:18.326Z,42.128000
2023-04-15T00:40:20.271Z,42.704000
2023-04-15T00:45:22.605Z,42.620000
2023-04-15T00:50:24.900Z,42.716000
2023-04-15T00:55:27.007Z,42.812000
2023-04-15T01:00:29.237Z,42.668000
2023-04-15T01:05:31.304Z,42.188000
2023-04-15T01:10:33.755Z,41.396000
2023-04-15T01:15:16.008Z,41.540000
2023-04-15T01:20:19.094Z,41.876000
2023-04-15T01:25:21.191Z,42.116000
2023-04-15T01:30:23.218Z,42.401429
2023-04-15T01:35:25.200Z,42.392000
2023-04-15T01:40:27.597Z,42.380000
2023-04-15T01:45:30.115Z,42.332000
2023-04-15T01:50:32.868Z,42.212000
2023-04-15T01:55:34.697Z,42.188000
2023-04-15T02:00:16.669Z,42.260000
2023-04-15T02:05:18.743Z,42.284000
2023-04-15T02:10:20.905Z,42.440000
2023-04-15T02:15:22.808Z,42.375714
2023-04-15T02:20:24.946Z,42.236000
2023-04-15T02:25:27.396Z,42.020000
2023-04-15T02:30:29.566Z,41.624000
2023-04-15T02:35:31.736Z,41.264000
2023-04-15T02:40:34.263Z,40.976000
2023-04-15T02:45:15.932Z,40.400000
2023-04-15T02:50:18.376Z,40.160000
2023-04-15T02:55:20.673Z,40.148000
2023-04-15T03:00:22.909Z,40.022857
2023-04-15T03:05:25.089Z,40.448000
2023-04-15T03:10:27.663Z,40.640000
2023-04-15T03:15:29.735Z,40.640000
2023-04-15T03:20:31.934Z,40.448000
2023-04-15T03:25:34.687Z,40.532000
2023-04-15T03:30:16.790Z,40.952000
2023-04-15T03:35:18.971Z,41.000000
2023-04-15T03:40:21.427Z,41.000000
2023-04-15T03:45:23.721Z,40.730000
2023-04-15T03:50:26.105Z,40.052000
2023-04-15T03:55:28.060Z,40.100000
2023-04-15T04:00:30.376Z,39.848000
2023-04-15T04:05:32.529Z,39.740000
2023-04-15T04:10:34.704Z,39.740000
2023-04-15T04:15:17.097Z,39.632000
2023-04-15T04:20:19.912Z,39.716000
2023-04-15T04:25:22.226Z,39.868571
2023-04-15T04:30:24.105Z,39.752000
2023-04-15T04:35:26.352Z,39.560000
2023-04-15T04:40:28.605Z,39.428000
2023-04-15T04:45:30.660Z,39.200000
2023-04-15T04:50:32.968Z,38.948000
2023-04-15T04:55:35.218Z,38.600000
2023-04-15T05:00:17.104Z,38.324000
2023-04-15T05:05:19.214Z,38.036000
2023-04-15T05:10:21.412Z,37.940000
2023-04-15T05:15:23.640Z,37.837143
2023-04-15T05:20:26.046Z,37.712000
2023-04-15T05:25:28.277Z,37.400000
2023-04-15T05:30:30.357Z,37.568000
2023-04-15T05:35:32.436Z,37.580000
2023-04-15T05:40:34.692Z,37.472000
2023-04-15T05:45:16.651Z,37.400000
2023-04-15T05:50:18.833Z,37.268000
2023-04-15T05:55:21.090Z,37.148000
2023-04-15T06:00:23.455Z,37.220000
2023-04-15T06:05:26.018Z,36.956000
2023-04-15T06:10:27.969Z,36.860000
2023-04-15T06:15:30.353Z,36.776000
2023-04-15T06:20:32.410Z,36.860000
2023-04-15T06:25:34.610Z,36.860000
2023-04-15T06:30:16.770Z,36.860000
2023-04-15T06:35:18.708Z,36.860000
2023-04-15T06:40:21.055Z,36.776000
2023-04-15T06:45:23.058Z,36.448571
2023-04-15T06:50:24.848Z,36.524000
2023-04-15T06:55:27.214Z,36.632000
2023-04-15T07:00:29.757Z,36.368000
2023-04-15T07:05:31.780Z,36.188000
2023-04-15T07:10:33.728Z,36.164000
2023-04-15T07:15:15.788Z,35.840000
2023-04-15T07:20:18.083Z,35.744000
2023-04-15T07:25:20.119Z,35.948000
2023-04-15T07:30:22.440Z,35.638571
2023-04-15T07:35:24.752Z,35.600000
2023-04-15T07:40:26.900Z,35.456000
2023-04-15T07:45:29.006Z,35.492000
2023-04-15T07:50:31.328Z,35.624000
2023-04-15T07:55:33.236Z,35.420000
2023-04-15T08:00:35.832Z,35.348000
2023-04-15T08:05:17.853Z,35.096000
2023-04-15T08:10:19.938Z,35.012000
2023-04-15T08:15:22.117Z,34.790000
2023-04-15T08:20:24.207Z,34.988000
2023-04-15T08:25:26.130Z,34.712000
2023-04-15T08:30:28.298Z,34.688000
2023-04-15T08:35:30.444Z,34.592000
2023-04-15T08:40:32.806Z,34.340000
2023-04-15T08:45:35.248Z,34.232000
2023-04-15T08:50:16.504Z,34.040000
2023-04-15T08:55:18.830Z,33.872000
2023-04-15T09:00:20.651Z,33.812000
2023-04-15T09:05:28.505Z,33.890000
2023-04-15T09:10:30.994Z,33.800000
2023-04-15T09:15:33.573Z,33.680000
2023-04-15T09:20:15.946Z,33.608000
2023-04-15T09:25:18.737Z,33.440000
2023-04-15T09:30:21.918Z,33.164000
2023-04-15T09:35:24.168Z,32.617143
2023-04-15T09:40:27.262Z,32.012000
2023-04-15T09:45:30.213Z,31.796000
2023-04-15T09:50:32.954Z,31.940000
2023-04-15T09:55:15.790Z,32.012000
2023-04-15T10:00:18.471Z,31.700000
2023-04-15T10:05:21.414Z,32.540000
2023-04-15T10:10:24.016Z,32.887143
2023-04-15T10:15:27.841Z,32.720000
2023-04-15T10:20:29.638Z,32.504000
2023-04-15T10:25:32.591Z,32.456000
2023-04-15T10:30:35.797Z,32.300000
2023-04-15T10:35:17.926Z,32.660000
2023-04-15T10:40:20.697Z,32.876000
2023-04-15T10:45:22.955Z,32.398571
2023-04-15T10:50:25.819Z,32.180000
2023-04-15T10:55:28.850Z,31.844000
2023-04-15T11:00:31.818Z,31.628000
2023-04-15T11:05:34.462Z,32.084000
2023-04-15T11:10:16.850Z,32.120000
2023-04-15T11:15:19.944Z,32.540000
2023-04-15T11:20:22.774Z,32.604286
2023-04-15T11:25:25.617Z,32.360000
2023-04-15T11:30:29.313Z,32.180000
2023-04-15T11:35:32.191Z,32.228000
2023-04-15T11:40:35.963Z,32.504000
2023-04-15T11:45:18.125Z,32.480000
2023-04-15T11:50:21.505Z,32.120000
2023-04-15T11:55:24.047Z,32.064286
2023-04-15T12:00:27.477Z,32.204000
2023-04-15T12:05:30.878Z,32.624000
2023-04-15T12:10:33.192Z,32.012000
2023-04-15T12:15:16.711Z,32.000000
2023-04-15T12:20:18.533Z,32.012000
2023-04-15T12:25:20.962Z,31.580000
2023-04-15T12:30:24.268Z,31.035714
2023-04-15T12:35:26.719Z,31.172000
2023-04-15T12:40:29.483Z,31.640000
2023-04-15T12:45:32.126Z,31.784000
2023-04-15T12:50:35.910Z,31.724000
2023-04-15T12:55:17.845Z,31.412000
2023-04-15T13:00:21.209Z,31.088000
2023-04-15T13:05:24.090Z,30.997143
2023-04-15T13:10:26.561Z,31.100000
2023-04-15T13:15:29.570Z,31.124000
2023-04-15T13:20:32.380Z,31.556000
2023-04-15T13:25:35.195Z,32.336000
2023-04-15T13:30:17.441Z,32.444000
2023-04-15T13:35:21.036Z,32.684000
2023-04-15T13:40:24.522Z,32.720000
2023-04-15T13:45:27.120Z,33.224000
2023-04-15T13:50:30.122Z,34.544000
2023-04-15T13:55:33.035Z,35.120000
2023-04-15T14:00:35.936Z,35.144000
2023-04-15T14:05:18.691Z,35.132000
2023-04-15T14:10:22.023Z,35.420000
2023-04-15T14:15:24.690Z,36.062857
2023-04-15T14:20:28.198Z,36.932000
2023-04-15T14:25:34.014Z,38.000000
2023-04-15T14:30:33.235Z,38.300000
2023-04-15T14:35:35.770Z,38.468000
2023-04-15T14:40:17.908Z,39.116000
2023-04-15T14:45:21.147Z,40.016000
2023-04-15T14:50:23.965Z,40.730000
2023-04-15T14:55:26.834Z,41.264000
2023-04-15T15:00:30.688Z,41.444000
2023-04-15T15:05:32.867Z,42.116000
2023-04-15T15:10:46.561Z,41.864000
2023-04-15T15:15:28.510Z,42.680000
2023-04-15T15:20:20.860Z,43.196000
2023-04-15T15:25:23.214Z,43.340000
2023-04-15T15:30:26.712Z,43.916000
2023-04-15T15:35:29.261Z,44.432000
2023-04-15T15:40:32.358Z,44.384000
2023-04-15T15:45:36.478Z,44.480000
2023-04-15T15:50:18.049Z,45.296000
2023-04-15T15:55:20.977Z,45.140000
2023-04-15T16:00:23.593Z,45.101429
2023-04-15T16:05:25.999Z,44.780000
2023-04-15T16:10:29.539Z,45.116000
2023-04-15T16:15:31.907Z,46.004000
2023-04-15T16:20:35.453Z,46.376000
2023-04-15T16:25:17.984Z,46.220000
2023-04-15T16:30:22.136Z,46.736000
2023-04-15T16:35:23.280Z,46.850000
2023-04-15T16:40:25.952Z,47.180000
2023-04-15T16:45:29.131Z,47.084000
2023-04-15T16:50:32.211Z,47.540000
2023-04-15T16:55:35.113Z,48.512000
2023-04-15T17:00:16.968Z,48.020000
2023-04-15T17:05:20.127Z,48.728000
2023-04-15T17:10:22.991Z,49.151429
2023-04-15T17:15:27.436Z,48.572000
2023-04-15T17:20:29.348Z,47.204000
2023-04-15T17:25:32.261Z,48.464000
2023-04-15T17:30:34.748Z,49.184000
2023-04-15T17:35:17.619Z,50.012000
2023-04-15T17:40:21.142Z,49.040000
2023-04-15T17:45:23.542Z,48.585714
2023-04-15T17:50:26.036Z,49.760000
2023-04-15T17:55:30.359Z,49.256000
2023-04-15T18:00:32.687Z,50.264000
2023-04-15T18:05:36.254Z,49.484000
2023-04-15T18:10:18.876Z,50.564000
2023-04-15T18:15:21.810Z,50.144000
2023-04-15T18:20:25.074Z,49.588571
2023-04-15T18:25:27.709Z,50.996000
2023-04-15T18:30:30.259Z,51.704000
2023-04-15T18:35:32.712Z,50.732000
2023-04-15T18:40:35.073Z,50.576000
2023-04-15T18:45:17.766Z,50.600000
2023-04-15T18:50:21.079Z,51.080000
2023-04-15T18:55:23.788Z,50.475714
2023-04-15T19:00:26.338Z,51.068000
2023-04-15T19:05:29.059Z,49.700000
2023-04-15T19:10:31.798Z,51.032000
2023-04-15T19:15:35.279Z,50.334286
2023-04-15T19:20:17.917Z,50.000000
2023-04-15T19:25:21.007Z,51.008000
2023-04-15T19:30:24.337Z,51.105714
2023-04-15T19:35:26.844Z,51.284000
2023-04-15T19:40:29.572Z,52.136000
2023-04-15T19:45:31.983Z,53.420000
2023-04-15T19:50:34.756Z,52.508000
2023-04-15T19:55:17.086Z,51.920000
2023-04-15T20:00:19.864Z,51.752000
2023-04-15T20:05:22.680Z,52.365714
2023-04-15T20:10:25.212Z,52.328000
2023-04-15T20:15:27.754Z,52.916000
2023-04-15T20:20:31.309Z,52.124000
2023-04-15T20:25:34.587Z,52.412000
2023-04-15T20:30:17.016Z,52.544000
2023-04-15T20:35:19.679Z,52.640000
2023-04-15T20:40:22.244Z,53.111429
2023-04-15T20:45:24.877Z,53.336000
2023-04-15T20:50:27.531Z,53.060000
2023-04-15T20:55:30.805Z,51.896000
2023-04-15T21:00:32.548Z,53.540000
2023-04-15T21:05:36.065Z,52.640000
2023-04-15T21:10:18.124Z,52.484000
2023-04-15T21:15:21.234Z,53.396000
2023-04-15T21:20:23.767Z,53.625714
2023-04-15T21:25:26.685Z,53.540000
2023-04-15T21:30:29.380Z,53.612000
2023-04-15T21:35:32.565Z,53.612000
2023-04-15T21:40:35.670Z,53.480000
2023-04-15T21:45:17.902Z,52.544000
2023-04-15T21:50:20.958Z,53.072000
2023-04-15T21:55:23.722Z,54.011429
2023-04-15T22:00:26.275Z,53.480000
2023-04-15T22:05:29.012Z,53.216000
2023-04-15T22:10:32.511Z,54.392000
2023-04-15T22:15:35.672Z,54.968000
2023-04-15T22:20:19.719Z,54.920000
2023-04-15T22:25:23.420Z,53.908571
2023-04-15T22:30:25.044Z,54.152000
2023-04-15T22:35:28.069Z,54.776000
2023-04-15T22:40:30.191Z,55.268000
2023-04-15T22:45:33.232Z,54.320000
2023-04-15T22:50:35.977Z,54.704000
2023-04-15T22:55:18.615Z,54.356000
2023-04-15T23:00:21.184Z,55.268000
2023-04-15T23:05:24.327Z,55.142857
2023-04-15T23:10:27.167Z,55.460000
2023-04-15T23:15:30.199Z,54.968000
2023-04-15T23:20:33.246Z,53.882857
2023-04-15T23:25:35.852Z,54.612500
2023-04-15T23:30:18.116Z,54.560000
2023-04-15T23:35:20.410Z,54.680000
2023-04-15T23:40:23.292Z,55.322857
2023-04-15T23:45:25.915Z,55.268000
2023-04-15T23:50:28.782Z,56.156000
2023-04-15T23:55:32.025Z,56.528000
